sensor_id;sensor_type;location;lat;lon;timestamp;P1;durP1;ratioP1;P2;durP2;ratioP2
40527;SDS011;26230;51.268;6.534;2024-03-07T00:00:01;57.3;;;37.0;;
40527;SDS011;26230;51.268;6.534;2024-03-07T00:10:03;57.3;;;37.0;;
40527;SDS011;26230;51.268;6.534;2024-03-07T00:20:02;69.3;;;54.8;;
40527;SDS011;26230;51.268;6.534;2024-03-07T00:30:01;61.9;;;39.3;;
40527;SDS011;26230;51.268;6.534;2024-03-07T00:40:00;61.9;;;39.3;;
40527;SDS011;26230;51.268;6.534;2024-03-07T00:50:00;65.0;;;39.9;;
40527;SDS011;26230;51.268;6.534;2024-03-07T01:00:01;67.0;;;39.5;;
40527;SDS011;26230;51.268;6.534;2024-03-07T01:10:06;67.0;;;39.5;;
40527;SDS011;26230;51.268;6.534;2024-03-07T01:20:04;66.9;;;40.0;;
40527;SDS011;26230;51.268;6.534;2024-03-07T01:30:01;67.2;;;40.4;;
40527;SDS011;26230;51.268;6.534;2024-03-07T01:40:03;67.2;;;40.4;;
40527;SDS011;26230;51.268;6.534;2024-03-07T01:50:01;75.9;;;42.2;;
40527;SDS011;26230;51.268;6.534;2024-03-07T02:00:06;72.5;;;41.7;;
40527;SDS011;26230;51.268;6.534;2024-03-07T02:10:02;72.5;;;41.7;;
40527;SDS011;26230;51.268;6.534;2024-03-07T02:20:00;72.7;;;41.2;;
40527;SDS011;26230;51.268;6.534;2024-03-07T02:30:03;81.9;;;58.5;;
40527;SDS011;26230;51.268;6.534;2024-03-07T02:40:01;81.9;;;58.5;;
40527;SDS011;26230;51.268;6.534;2024-03-07T02:50:00;91.5;;;61.0;;
40527;SDS011;26230;51.268;6.534;2024-03-07T03:00:01;87.0;;;59.9;;
40527;SDS011;26230;51.268;6.534;2024-03-07T03:10:00;87.0;;;59.9;;
40527;SDS011;26230;51.268;6.534;2024-03-07T03:20:00;84.6;;;59.3;;
40527;SDS011;26230;51.268;6.534;2024-03-07T03:30:00;84.7;;;58.0;;
40527;SDS011;26230;51.268;6.534;2024-03-07T03:40:00;84.7;;;58.0;;
40527;SDS011;26230;51.268;6.534;2024-03-07T03:50:00;79.8;;;57.5;;
40527;SDS011;26230;51.268;6.534;2024-03-07T04:00:01;94.0;;;62.0;;
40527;SDS011;26230;51.268;6.534;2024-03-07T04:10:03;94.0;;;62.0;;
40527;SDS011;26230;51.268;6.534;2024-03-07T04:20:03;100.7;;;64.5;;
40527;SDS011;26230;51.268;6.534;2024-03-07T04:30:03;107.9;;;66.6;;
40527;SDS011;26230;51.268;6.534;2024-03-07T04:40:01;107.9;;;66.6;;
40527;SDS011;26230;51.268;6.534;2024-03-07T04:50:00;110.4;;;65.2;;
40527;SDS011;26230;51.268;6.534;2024-03-07T05:00:01;121.6;;;73.5;;
40527;SDS011;26230;51.268;6.534;2024-03-07T05:10:01;121.6;;;73.5;;
40527;SDS011;26230;51.268;6.534;2024-03-07T05:20:01;101.0;;;68.5;;
40527;SDS011;26230;51.268;6.534;2024-03-07T05:30:01;103.0;;;68.6;;
40527;SDS011;26230;51.268;6.534;2024-03-07T05:40:03;103.0;;;68.6;;
40527;SDS011;26230;51.268;6.534;2024-03-07T05:50:00;87.2;;;64.6;;
40527;SDS011;26230;51.268;6.534;2024-03-07T06:00:01;100.2;;;65.2;;
40527;SDS011;26230;51.268;6.534;2024-03-07T06:10:00;100.2;;;65.2;;
40527;SDS011;26230;51.268;6.534;2024-03-07T06:20:00;81.6;;;61.4;;
40527;SDS011;26230;51.268;6.534;2024-03-07T06:30:01;81.0;;;61.2;;
40527;SDS011;26230;51.268;6.534;2024-03-07T06:40:00;81.0;;;61.2;;
40527;SDS011;26230;51.268;6.534;2024-03-07T06:50:00;86.9;;;62.6;;
40527;SDS011;26230;51.268;6.534;2024-03-07T07:00:00;76.4;;;58.9;;
40527;SDS011;26230;51.268;6.534;2024-03-07T07:10:01;76.4;;;58.9;;
40527;SDS011;26230;51.268;6.534;2024-03-07T07:20:00;81.5;;;60.1;;
40527;SDS011;26230;51.268;6.534;2024-03-07T07:30:01;81.7;;;60.8;;
40527;SDS011;26230;51.268;6.534;2024-03-07T07:40:09;81.7;;;60.8;;
40527;SDS011;26230;51.268;6.534;2024-03-07T07:50:02;77.6;;;59.2;;
40527;SDS011;26230;51.268;6.534;2024-03-07T08:00:03;72.7;;;57.1;;
40527;SDS011;26230;51.268;6.534;2024-03-07T08:10:00;72.7;;;57.1;;
40527;SDS011;26230;51.268;6.534;2024-03-07T08:20:01;69.4;;;56.4;;
40527;SDS011;26230;51.268;6.534;2024-03-07T08:30:00;64.0;;;51.4;;
40527;SDS011;26230;51.268;6.534;2024-03-07T08:40:04;64.0;;;51.4;;
40527;SDS011;26230;51.268;6.534;2024-03-07T08:50:01;56.4;;;50.3;;
40527;SDS011;26230;51.268;6.534;2024-03-07T09:00:08;51.8;;;46.2;;
40527;SDS011;26230;51.268;6.534;2024-03-07T09:10:00;51.8;;;46.2;;
40527;SDS011;26230;51.268;6.534;2024-03-07T09:20:00;49.1;;;44.0;;
40527;SDS011;26230;51.268;6.534;2024-03-07T09:30:01;40.9;;;36.6;;
40527;SDS011;26230;51.268;6.534;2024-03-07T09:40:01;40.9;;;36.6;;
40527;SDS011;26230;51.268;6.534;2024-03-07T09:50:01;36.5;;;33.1;;
40527;SDS011;26230;51.268;6.534;2024-03-07T10:00:02;35.4;;;32.1;;
40527;SDS011;26230;51.268;6.534;2024-03-07T10:10:06;35.4;;;32.1;;
40527;SDS011;26230;51.268;6.534;2024-03-07T10:20:01;34.3;;;30.8;;
40527;SDS011;26230;51.268;6.534;2024-03-07T10:30:01;19.7;;;15.0;;
40527;SDS011;26230;51.268;6.534;2024-03-07T10:50:17;21.7;;;16.5;;
40527;SDS011;26230;51.268;6.534;2024-03-07T11:10:04;23.8;;;15.8;;
40527;SDS011;26230;51.268;6.534;2024-03-07T11:30:08;24.9;;;16.9;;
40527;SDS011;26230;51.268;6.534;2024-03-07T11:40:08;24.9;;;16.9;;
40527;SDS011;26230;51.268;6.534;2024-03-07T11:50:02;22.6;;;15.6;;
40527;SDS011;26230;51.268;6.534;2024-03-07T12:00:09;21.0;;;15.7;;
40527;SDS011;26230;51.268;6.534;2024-03-07T12:10:03;21.0;;;15.7;;
40527;SDS011;26230;51.268;6.534;2024-03-07T12:30:15;24.4;;;16.7;;
40527;SDS011;26230;51.268;6.534;2024-03-07T12:40:11;24.4;;;16.7;;
40527;SDS011;26230;51.268;6.534;2024-03-07T12:50:00;23.6;;;16.6;;
40527;SDS011;26230;51.268;6.534;2024-03-07T13:00:01;22.1;;;16.8;;
40527;SDS011;26230;51.268;6.534;2024-03-07T13:10:01;22.1;;;16.8;;
40527;SDS011;26230;51.268;6.534;2024-03-07T13:20:01;20.4;;;15.0;;
40527;SDS011;26230;51.268;6.534;2024-03-07T13:30:03;25.1;;;21.5;;
40527;SDS011;26230;51.268;6.534;2024-03-07T13:50:02;30.5;;;24.2;;
40527;SDS011;26230;51.268;6.534;2024-03-07T14:30:27;22.5;;;19.4;;
40527;SDS011;26230;51.268;6.534;2024-03-07T14:40:10;22.5;;;19.4;;
40527;SDS011;26230;51.268;6.534;2024-03-07T14:50:00;19.9;;;16.9;;
40527;SDS011;26230;51.268;6.534;2024-03-07T15:00:01;20.2;;;18.0;;
40527;SDS011;26230;51.268;6.534;2024-03-07T15:10:06;20.2;;;18.0;;
40527;SDS011;26230;51.268;6.534;2024-03-07T15:20:06;19.6;;;17.7;;
40527;SDS011;26230;51.268;6.534;2024-03-07T15:30:01;15.9;;;12.5;;
40527;SDS011;26230;51.268;6.534;2024-03-07T15:40:04;15.9;;;12.5;;
40527;SDS011;26230;51.268;6.534;2024-03-07T15:50:01;13.3;;;11.9;;
40527;SDS011;26230;51.268;6.534;2024-03-07T16:10:01;13.1;;;11.7;;
40527;SDS011;26230;51.268;6.534;2024-03-07T16:20:01;13.0;;;11.7;;
40527;SDS011;26230;51.268;6.534;2024-03-07T16:30:05;15.2;;;13.7;;
40527;SDS011;26230;51.268;6.534;2024-03-07T16:40:05;15.2;;;13.7;;
40527;SDS011;26230;51.268;6.534;2024-03-07T16:50:01;18.1;;;11.7;;
40527;SDS011;26230;51.268;6.534;2024-03-07T17:00:03;14.6;;;12.4;;
40527;SDS011;26230;51.268;6.534;2024-03-07T17:10:01;14.6;;;12.4;;
40527;SDS011;26230;51.268;6.534;2024-03-07T17:20:00;15.8;;;12.6;;
40527;SDS011;26230;51.268;6.534;2024-03-07T17:30:01;17.6;;;15.8;;
40527;SDS011;26230;51.268;6.534;2024-03-07T17:40:00;17.6;;;15.8;;
40527;SDS011;26230;51.268;6.534;2024-03-07T17:50:07;16.3;;;10.8;;
40527;SDS011;26230;51.268;6.534;2024-03-07T18:00:00;15.9;;;10.5;;
40527;SDS011;26230;51.268;6.534;2024-03-07T18:10:12;15.9;;;10.5;;
40527;SDS011;26230;51.268;6.534;2024-03-07T18:20:03;15.3;;;10.2;;
40527;SDS011;26230;51.268;6.534;2024-03-07T18:30:10;18.8;;;14.1;;
40527;SDS011;26230;51.268;6.534;2024-03-07T18:40:02;18.8;;;14.1;;
40527;SDS011;26230;51.268;6.534;2024-03-07T18:50:01;20.0;;;14.5;;
40527;SDS011;26230;51.268;6.534;2024-03-07T19:00:04;28.8;;;18.0;;
40527;SDS011;26230;51.268;6.534;2024-03-07T19:30:04;28.6;;;18.1;;
40527;SDS011;26230;51.268;6.534;2024-03-07T19:40:02;28.6;;;18.1;;
40527;SDS011;26230;51.268;6.534;2024-03-07T19:50:03;27.4;;;21.5;;
40527;SDS011;26230;51.268;6.534;2024-03-07T20:00:08;31.6;;;19.6;;
40527;SDS011;26230;51.268;6.534;2024-03-07T20:10:06;31.6;;;19.6;;
40527;SDS011;26230;51.268;6.534;2024-03-07T20:20:14;28.3;;;19.6;;
40527;SDS011;26230;51.268;6.534;2024-03-07T20:30:01;38.8;;;34.6;;
40527;SDS011;26230;51.268;6.534;2024-03-07T20:40:10;38.8;;;34.6;;
40527;SDS011;26230;51.268;6.534;2024-03-07T20:50:02;42.2;;;35.8;;
40527;SDS011;26230;51.268;6.534;2024-03-07T21:00:03;37.8;;;32.4;;
40527;SDS011;26230;51.268;6.534;2024-03-07T21:10:01;37.8;;;32.4;;
40527;SDS011;26230;51.268;6.534;2024-03-07T21:20:01;34.0;;;30.7;;
40527;SDS011;26230;51.268;6.534;2024-03-07T21:30:01;32.1;;;29.1;;
40527;SDS011;26230;51.268;6.534;2024-03-07T21:40:02;32.1;;;29.1;;
40527;SDS011;26230;51.268;6.534;2024-03-07T21:50:03;28.9;;;26.1;;
40527;SDS011;26230;51.268;6.534;2024-03-07T22:00:04;29.7;;;26.8;;
40527;SDS011;26230;51.268;6.534;2024-03-07T22:10:04;29.7;;;26.8;;
40527;SDS011;26230;51.268;6.534;2024-03-07T22:20:00;30.1;;;27.3;;
40527;SDS011;26230;51.268;6.534;2024-03-07T22:30:01;30.2;;;27.3;;
40527;SDS011;26230;51.268;6.534;2024-03-07T22:40:01;30.2;;;27.3;;
40527;SDS011;26230;51.268;6.534;2024-03-07T23:00:06;32.4;;;29.4;;
40527;SDS011;26230;51.268;6.534;2024-03-07T23:10:00;32.4;;;29.4;;
40527;SDS011;26230;51.268;6.534;2024-03-07T23:20:00;31.6;;;28.6;;
40527;SDS011;26230;51.268;6.534;2024-03-07T23:30:01;31.9;;;28.9;;
40527;SDS011;26230;51.268;6.534;2024-03-07T23:40:00;31.9;;;28.9;;
40527;SDS011;26230;51.268;6.534;2024-03-07T23:50:01;31.7;;;28.7;;
